Time;durP1;ratioP1;P1;durP2;ratioP2;P2;SDS_P1;SDS_P2;PMS_P1;PMS_P2;Temp;Humidity;BMP_temperature;BMP_pressure;BME280_temperature;BME280_humidity;BME280_pressure;Samples;Min_cycle;Max_cycle;Signal;HPM_P1;HPM_P2
2020/04/15 00:00:46;;;;;;;7.1;3.25;;;;;;;0.02;51.02246;95884.5;;;;
2020/04/15 00:01:48;;;;;;;7.1;3.25;;;;;;;0.02;51.02246;95884.5;;;;
2020/04/15 00:02:48;;;;;;;7.1;3.25;;;;;;;0.02;51.02246;95884.5;;;;
2020/04/15 00:03:49;;;;;;;5.949999;3.05;;;;;;;-0.07;50.12793;95885.44;;;;
2020/04/15 00:04:49;;;;;;;5.949999;3.05;;;;;;;-0.07;50.12793;95885.44;;;;
2020/04/15 00:05:50;;;;;;;5.949999;3.05;;;;;;;-0.07;50.12793;95885.44;;;;
2020/04/15 00:06:50;;;;;;;8.799999;3;;;;;;;-0.05;50.42578;95874.08;;;;
2020/04/15 00:07:51;;;;;;;8.799999;3;;;;;;;-0.05;50.42578;95874.08;;;;
2020/04/15 00:08:51;;;;;;;8.799999;3;;;;;;;-0.05;50.42578;95874.08;;;;
2020/04/15 00:09:51;;;;;;;8.799999;3;;;;;;;-0.05;50.42578;95874.08;;;;
2020/04/15 00:10:52;;;;;;;8.799999;3;;;;;;;-0.05;50.42578;95874.08;;;;
2020/04/15 00:11:52;;;;;;;8.799999;3;;;;;;;-0.05;50.42578;95874.08;;;;
2020/04/15 00:12:53;;;;;;;8.799999;3;;;;;;;-0.05;50.42578;95874.08;;;;
2020/04/15 00:13:53;;;;;;;8.799999;3;;;;;;;-0.05;50.42578;95874.08;;;;
2020/04/15 00:14:54;;;;;;;8.799999;3;;;;;;;-0.05;50.42578;95874.08;;;;
2020/04/15 00:15:55;;;;;;;8.799999;3;;;;;;;-0.05;50.42578;95874.08;;;;
2020/04/15 00:16:55;;;;;;;8.799999;3;;;;;;;-0.05;50.42578;95874.08;;;;
2020/04/15 00:17:56;;;;;;;6.85;3.1;;;;;;;-0.12;49.83887;95856.27;;;;
2020/04/15 00:18:56;;;;;;;6.85;3.1;;;;;;;-0.12;49.83887;95856.27;;;;
2020/04/15 00:19:57;;;;;;;7.65;3.1;;;;;;;-0.09;50.17871;95846.27;;;;
2020/04/15 00:20:57;;;;;;;7.65;3.1;;;;;;;-0.09;50.17871;95846.27;;;;
2020/04/15 00:21:58;;;;;;;7.65;3.1;;;;;;;-0.09;50.17871;95846.27;;;;
2020/04/15 00:22:58;;;;;;;7.65;3.1;;;;;;;-0.09;50.17871;95846.27;;;;
2020/04/15 00:23:59;;;;;;;7.65;3.1;;;;;;;-0.09;50.17871;95846.27;;;;
2020/04/15 00:24:59;;;;;;;7.65;3.1;;;;;;;-0.09;50.17871;95846.27;;;;
2020/04/15 00:26:00;;;;;;;7.65;3.1;;;;;;;-0.09;50.17871;95846.27;;;;
2020/04/15 00:27:00;;;;;;;7.65;3.1;;;;;;;-0.09;50.17871;95846.27;;;;
2020/04/15 00:28:01;;;;;;;7.65;3.1;;;;;;;-0.09;50.17871;95846.27;;;;
2020/04/15 00:29:02;;;;;;;7.65;3.1;;;;;;;-0.09;50.17871;95846.27;;;;
2020/04/15 00:30:03;;;;;;;7.65;3.1;;;;;;;-0.09;50.17871;95846.27;;;;
2020/04/15 00:31:05;;;;;;;5.2;3.15;;;;;;;-0.22;49.69043;95831.27;;;;
2020/04/15 00:32:05;;;;;;;5.2;3.15;;;;;;;-0.22;49.69043;95831.27;;;;
2020/04/15 00:33:06;;;;;;;8.299999;3.3;;;;;;;-0.2;50.00781;95817.77;;;;
2020/04/15 00:34:06;;;;;;;8.299999;3.3;;;;;;;-0.2;50.00781;95817.77;;;;
2020/04/15 00:35:07;;;;;;;8.299999;3.3;;;;;;;-0.2;50.00781;95817.77;;;;
2020/04/15 00:36:07;;;;;;;8.299999;3.3;;;;;;;-0.2;50.00781;95817.77;;;;
2020/04/15 00:37:08;;;;;;;8.299999;3.3;;;;;;;-0.2;50.00781;95817.77;;;;
2020/04/15 00:38:08;;;;;;;8.299999;3.3;;;;;;;-0.2;50.00781;95817.77;;;;
2020/04/15 00:39:09;;;;;;;8.299999;3.3;;;;;;;-0.2;50.00781;95817.77;;;;
2020/04/15 00:40:09;;;;;;;8.299999;3.3;;;;;;;-0.2;50.00781;95817.77;;;;
2020/04/15 00:41:10;;;;;;;8.299999;3.3;;;;;;;-0.2;50.00781;95817.77;;;;
2020/04/15 00:42:11;;;;;;;8.299999;3.3;;;;;;;-0.2;50.00781;95817.77;;;;
2020/04/15 00:43:11;;;;;;;8.299999;3.3;;;;;;;-0.2;50.00781;95817.77;;;;
2020/04/15 00:44:12;;;;;;;6.349999;2.9;;;;;;;-0.29;49.52441;95814.73;;;;
2020/04/15 00:45:13;;;;;;;6.349999;2.9;;;;;;;-0.29;49.52441;95814.73;;;;
2020/04/15 00:46:13;;;;;;;7.8;3;;;;;;;-0.26;49.84375;95822.37;;;;
2020/04/15 00:47:14;;;;;;;7.8;3;;;;;;;-0.26;49.84375;95822.37;;;;
2020/04/15 00:48:15;;;;;;;7.8;3;;;;;;;-0.26;49.84375;95822.37;;;;
2020/04/15 00:49:15;;;;;;;7.4;3.7;;;;;;;-0.17;50.14844;95820.51;;;;
2020/04/15 00:50:16;;;;;;;7.4;3.7;;;;;;;-0.17;50.14844;95820.51;;;;
2020/04/15 00:51:16;;;;;;;7.4;3.7;;;;;;;-0.17;50.14844;95820.51;;;;
2020/04/15 00:52:17;;;;;;;7.4;3.7;;;;;;;-0.17;50.14844;95820.51;;;;
2020/04/15 00:53:18;;;;;;;7.4;3.7;;;;;;;-0.17;50.14844;95820.51;;;;
2020/04/15 00:54:18;;;;;;;7.4;3.7;;;;;;;-0.17;50.14844;95820.51;;;;
2020/04/15 00:55:19;;;;;;;7.4;3.7;;;;;;;-0.17;50.14844;95820.51;;;;
2020/04/15 00:56:19;;;;;;;7.4;3.7;;;;;;;-0.17;50.14844;95820.51;;;;
2020/04/15 00:57:20;;;;;;;7.4;3.7;;;;;;;-0.17;50.14844;95820.51;;;;
2020/04/15 00:58:20;;;;;;;7.4;3.7;;;;;;;-0.17;50.14844;95820.51;;;;
2020/04/15 00:59:21;;;;;;;5.45;2.8;;;;;;;-0.22;49.5127;95839.15;;;;
2020/04/15 01:00:21;;;;;;;5.45;2.8;;;;;;;-0.22;49.5127;95839.15;;;;
2020/04/15 01:01:21;;;;;;;5.45;2.8;;;;;;;-0.22;49.5127;95839.15;;;;
2020/04/15 01:02:22;;;;;;;5.45;2.8;;;;;;;-0.22;49.5127;95839.15;;;;
2020/04/15 01:03:22;;;;;;;5.45;2.8;;;;;;;-0.22;49.5127;95839.15;;;;
2020/04/15 01:04:23;;;;;;;5.45;2.8;;;;;;;-0.22;49.5127;95839.15;;;;
2020/04/15 01:05:24;;;;;;;5.45;2.8;;;;;;;-0.22;49.5127;95839.15;;;;
2020/04/15 01:06:24;;;;;;;5.45;2.8;;;;;;;-0.22;49.5127;95839.15;;;;
2020/04/15 01:07:25;;;;;;;5.45;2.8;;;;;;;-0.22;49.5127;95839.15;;;;
2020/04/15 01:08:25;;;;;;;5.45;2.8;;;;;;;-0.22;49.5127;95839.15;;;;
2020/04/15 01:09:26;;;;;;;5.45;2.8;;;;;;;-0.22;49.5127;95839.15;;;;
2020/04/15 01:10:28;;;;;;;4.299999;2.900001;;;;;;;-0.46;49.28418;95835.07;;;;
2020/04/15 01:11:28;;;;;;;4.299999;2.900001;;;;;;;-0.46;49.28418;95835.07;;;;
2020/04/15 01:12:28;;;;;;;4.299999;2.900001;;;;;;;-0.46;49.28418;95835.07;;;;
2020/04/15 01:13:29;;;;;;;8.2;3.25;;;;;;;-0.45;49.67383;95843.81;;;;
2020/04/15 01:14:29;;;;;;;8.2;3.25;;;;;;;-0.45;49.67383;95843.81;;;;
2020/04/15 01:15:30;;;;;;;8.2;3.25;;;;;;;-0.45;49.67383;95843.81;;;;
2020/04/15 01:16:30;;;;;;;8.2;3.25;;;;;;;-0.45;49.67383;95843.81;;;;
2020/04/15 01:17:31;;;;;;;8.2;3.25;;;;;;;-0.45;49.67383;95843.81;;;;
2020/04/15 01:18:31;;;;;;;8.2;3.25;;;;;;;-0.45;49.67383;95843.81;;;;
2020/04/15 01:19:32;;;;;;;8.2;3.25;;;;;;;-0.45;49.67383;95843.81;;;;
2020/04/15 01:20:33;;;;;;;8.2;3.25;;;;;;;-0.45;49.67383;95843.81;;;;
2020/04/15 01:21:33;;;;;;;8.2;3.25;;;;;;;-0.45;49.67383;95843.81;;;;
2020/04/15 01:22:38;;;;;;;8.2;3.25;;;;;;;-0.45;49.67383;95843.81;;;;
2020/04/15 01:28:55;;;;;;;6.350001;3.25;;;;;;;-0.57;49.89063;95849.84;;;;
2020/04/15 01:29:56;;;;;;;6.350001;3.25;;;;;;;-0.57;49.89063;95849.84;;;;
2020/04/15 01:30:59;;;;;;;6.350001;3.25;;;;;;;-0.57;49.89063;95849.84;;;;
2020/04/15 01:32:00;;;;;;;6.350001;3.25;;;;;;;-0.57;49.89063;95849.84;;;;
2020/04/15 01:33:01;;;;;;;6.350001;3.25;;;;;;;-0.57;49.89063;95849.84;;;;
2020/04/15 01:34:01;;;;;;;6.350001;3.25;;;;;;;-0.57;49.89063;95849.84;;;;
2020/04/15 01:35:04;;;;;;;6.350001;3.25;;;;;;;-0.57;49.89063;95849.84;;;;
2020/04/15 01:36:04;;;;;;;6.350001;3.25;;;;;;;-0.57;49.89063;95849.84;;;;
2020/04/15 01:37:06;;;;;;;8.5;4.149999;;;;;;;-0.69;49.59375;95828.97;;;;
2020/04/15 01:38:09;;;;;;;8.5;4.149999;;;;;;;-0.69;49.59375;95828.97;;;;
2020/04/15 01:39:10;;;;;;;9.049999;4.25;;;;;;;-0.65;50.0293;95825.51;;;;
2020/04/15 01:40:16;;;;;;;9.049999;4.25;;;;;;;-0.65;50.0293;95825.51;;;;
2020/04/15 01:41:16;;;;;;;9.049999;4.25;;;;;;;-0.65;50.0293;95825.51;;;;
2020/04/15 01:42:17;;;;;;;9.049999;4.25;;;;;;;-0.65;50.0293;95825.51;;;;
2020/04/15 01:43:21;;;;;;;9.049999;4.25;;;;;;;-0.65;50.0293;95825.51;;;;
2020/04/15 01:44:22;;;;;;;9.049999;4.25;;;;;;;-0.65;50.0293;95825.51;;;;
2020/04/15 01:45:25;;;;;;;9.049999;4.25;;;;;;;-0.65;50.0293;95825.51;;;;
2020/04/15 01:46:25;;;;;;;9.049999;4.25;;;;;;;-0.65;50.0293;95825.51;;;;
2020/04/15 01:47:26;;;;;;;9.049999;4.25;;;;;;;-0.65;50.0293;95825.51;;;;
2020/04/15 01:48:26;;;;;;;9.049999;4.25;;;;;;;-0.65;50.0293;95825.51;;;;
2020/04/15 01:49:28;;;;;;;9.049999;4.25;;;;;;;-0.65;50.0293;95825.51;;;;
2020/04/15 01:50:28;;;;;;;6.400001;3.7;;;;;;;-0.7;49.65527;95815.45;;;;
2020/04/15 01:51:29;;;;;;;6.400001;3.7;;;;;;;-0.7;49.65527;95815.45;;;;
2020/04/15 01:52:29;;;;;;;9.349999;3.95;;;;;;;-0.67;50.11035;95815.06;;;;
2020/04/15 01:53:29;;;;;;;9.349999;3.95;;;;;;;-0.67;50.11035;95815.06;;;;
2020/04/15 01:54:30;;;;;;;9.349999;3.95;;;;;;;-0.67;50.11035;95815.06;;;;
2020/04/15 01:55:31;;;;;;;9.349999;3.95;;;;;;;-0.67;50.11035;95815.06;;;;
2020/04/15 01:56:31;;;;;;;9.349999;3.95;;;;;;;-0.67;50.11035;95815.06;;;;
2020/04/15 01:57:33;;;;;;;9.349999;3.95;;;;;;;-0.67;50.11035;95815.06;;;;
2020/04/15 01:58:34;;;;;;;9.349999;3.95;;;;;;;-0.67;50.11035;95815.06;;;;
2020/04/15 01:59:34;;;;;;;9.349999;3.95;;;;;;;-0.67;50.11035;95815.06;;;;
2020/04/15 02:00:35;;;;;;;9.349999;3.95;;;;;;;-0.67;50.11035;95815.06;;;;
2020/04/15 02:01:35;;;;;;;9.349999;3.95;;;;;;;-0.67;50.11035;95815.06;;;;
2020/04/15 02:02:36;;;;;;;9.349999;3.95;;;;;;;-0.67;50.11035;95815.06;;;;
2020/04/15 02:03:36;;;;;;;9.45;4.1;;;;;;;-0.68;49.78418;95814.71;;;;
2020/04/15 02:04:37;;;;;;;9.45;4.1;;;;;;;-0.68;49.78418;95814.71;;;;
2020/04/15 02:05:37;;;;;;;8.900001;4.2;;;;;;;-0.63;50.16797;95815.17;;;;
2020/04/15 02:06:38;;;;;;;8.900001;4.2;;;;;;;-0.63;50.16797;95815.17;;;;
2020/04/15 02:07:40;;;;;;;8.900001;4.2;;;;;;;-0.63;50.16797;95815.17;;;;
2020/04/15 02:08:40;;;;;;;8.900001;4.2;;;;;;;-0.63;50.16797;95815.17;;;;
2020/04/15 02:09:41;;;;;;;8.900001;4.2;;;;;;;-0.63;50.16797;95815.17;;;;
2020/04/15 02:10:45;;;;;;;8.900001;4.2;;;;;;;-0.63;50.16797;95815.17;;;;
2020/04/15 02:11:46;;;;;;;8.900001;4.2;;;;;;;-0.63;50.16797;95815.17;;;;
2020/04/15 02:12:47;;;;;;;8.900001;4.2;;;;;;;-0.63;50.16797;95815.17;;;;
2020/04/15 02:13:47;;;;;;;8.900001;4.2;;;;;;;-0.63;50.16797;95815.17;;;;
2020/04/15 02:14:48;;;;;;;8.900001;4.2;;;;;;;-0.63;50.16797;95815.17;;;;
2020/04/15 02:15:50;;;;;;;8.900001;4.2;;;;;;;-0.63;50.16797;95815.17;;;;
2020/04/15 02:16:51;;;;;;;7.25;3.7;;;;;;;-0.7;49.9707;95779.57;;;;
2020/04/15 02:17:51;;;;;;;7.25;3.7;;;;;;;-0.7;49.9707;95779.57;;;;
2020/04/15 02:18:52;;;;;;;7.900001;3.75;;;;;;;-0.65;50.42773;95775.14;;;;
2020/04/15 02:19:53;;;;;;;7.900001;3.75;;;;;;;-0.65;50.42773;95775.14;;;;
2020/04/15 02:20:53;;;;;;;7.900001;3.75;;;;;;;-0.65;50.42773;95775.14;;;;
2020/04/15 02:21:54;;;;;;;7.900001;3.75;;;;;;;-0.65;50.42773;95775.14;;;;
2020/04/15 02:22:55;;;;;;;7.900001;3.75;;;;;;;-0.65;50.42773;95775.14;;;;
2020/04/15 02:23:56;;;;;;;7.900001;3.75;;;;;;;-0.65;50.42773;95775.14;;;;
2020/04/15 02:24:56;;;;;;;7.900001;3.75;;;;;;;-0.65;50.42773;95775.14;;;;
2020/04/15 02:25:57;;;;;;;7.900001;3.75;;;;;;;-0.65;50.42773;95775.14;;;;
2020/04/15 02:26:57;;;;;;;7.900001;3.75;;;;;;;-0.65;50.42773;95775.14;;;;
2020/04/15 02:27:58;;;;;;;7.900001;3.75;;;;;;;-0.65;50.42773;95775.14;;;;
2020/04/15 02:28:58;;;;;;;7.900001;3.75;;;;;;;-0.65;50.42773;95775.14;;;;
2020/04/15 02:29:59;;;;;;;7.349999;3.900001;;;;;;;-0.71;50.11719;95800.94;;;;
2020/04/15 02:30:59;;;;;;;7.349999;3.900001;;;;;;;-0.71;50.11719;95800.94;;;;
2020/04/15 02:32:00;;;;;;;11.75;3.9;;;;;;;-0.67;50.54102;95800.06;;;;
2020/04/15 02:33:00;;;;;;;11.75;3.9;;;;;;;-0.67;50.54102;95800.06;;;;
2020/04/15 02:34:01;;;;;;;11.75;3.9;;;;;;;-0.67;50.54102;95800.06;;;;
2020/04/15 02:35:01;;;;;;;11.75;3.9;;;;;;;-0.67;50.54102;95800.06;;;;
2020/04/15 02:36:02;;;;;;;11.75;3.9;;;;;;;-0.67;50.54102;95800.06;;;;
2020/04/15 02:37:03;;;;;;;11.75;3.9;;;;;;;-0.67;50.54102;95800.06;;;;
2020/04/15 02:38:03;;;;;;;11.75;3.9;;;;;;;-0.67;50.54102;95800.06;;;;
2020/04/15 02:39:04;;;;;;;11.75;3.9;;;;;;;-0.67;50.54102;95800.06;;;;
2020/04/15 02:40:05;;;;;;;11.75;3.9;;;;;;;-0.67;50.54102;95800.06;;;;
2020/04/15 02:41:05;;;;;;;11.75;3.9;;;;;;;-0.67;50.54102;95800.06;;;;
2020/04/15 02:42:06;;;;;;;11.75;3.9;;;;;;;-0.67;50.54102;95800.06;;;;
2020/04/15 02:43:07;;;;;;;6.6;3.7;;;;;;;-0.76;50.15332;95795.68;;;;
2020/04/15 02:44:07;;;;;;;6.6;3.7;;;;;;;-0.76;50.15332;95795.68;;;;
2020/04/15 02:45:08;;;;;;;9.200001;4.25;;;;;;;-0.74;50.5752;95782.18;;;;
2020/04/15 02:46:08;;;;;;;9.200001;4.25;;;;;;;-0.74;50.5752;95782.18;;;;
2020/04/15 02:47:09;;;;;;;9.200001;4.25;;;;;;;-0.74;50.5752;95782.18;;;;
2020/04/15 02:48:09;;;;;;;9.200001;4.25;;;;;;;-0.74;50.5752;95782.18;;;;
2020/04/15 02:49:10;;;;;;;9.200001;4.25;;;;;;;-0.74;50.5752;95782.18;;;;
2020/04/15 02:50:11;;;;;;;9.200001;4.25;;;;;;;-0.74;50.5752;95782.18;;;;
2020/04/15 02:51:12;;;;;;;9.200001;4.25;;;;;;;-0.74;50.5752;95782.18;;;;
2020/04/15 02:52:12;;;;;;;9.200001;4.25;;;;;;;-0.74;50.5752;95782.18;;;;
2020/04/15 02:53:13;;;;;;;9.200001;4.25;;;;;;;-0.74;50.5752;95782.18;;;;
2020/04/15 02:54:13;;;;;;;9.200001;4.25;;;;;;;-0.74;50.5752;95782.18;;;;
2020/04/15 02:55:14;;;;;;;9.200001;4.25;;;;;;;-0.74;50.5752;95782.18;;;;
2020/04/15 02:56:14;;;;;;;11.5;4.149999;;;;;;;-0.77;50.42285;95757.42;;;;
2020/04/15 02:57:15;;;;;;;11.5;4.149999;;;;;;;-0.77;50.42285;95757.42;;;;
2020/04/15 02:58:15;;;;;;;11.5;4.149999;;;;;;;-0.77;50.42285;95757.42;;;;
2020/04/15 02:59:16;;;;;;;7.2;3.95;;;;;;;-0.73;50.80566;95772.42;;;;
2020/04/15 03:00:16;;;;;;;7.2;3.95;;;;;;;-0.73;50.80566;95772.42;;;;
2020/04/15 03:01:17;;;;;;;7.2;3.95;;;;;;;-0.73;50.80566;95772.42;;;;
2020/04/15 03:02:17;;;;;;;7.2;3.95;;;;;;;-0.73;50.80566;95772.42;;;;
2020/04/15 03:03:18;;;;;;;7.2;3.95;;;;;;;-0.73;50.80566;95772.42;;;;
2020/04/15 03:04:19;;;;;;;7.2;3.95;;;;;;;-0.73;50.80566;95772.42;;;;
2020/04/15 03:05:20;;;;;;;7.2;3.95;;;;;;;-0.73;50.80566;95772.42;;;;
2020/04/15 03:06:21;;;;;;;7.2;3.95;;;;;;;-0.73;50.80566;95772.42;;;;
2020/04/15 03:07:22;;;;;;;7.2;3.95;;;;;;;-0.73;50.80566;95772.42;;;;
2020/04/15 03:08:22;;;;;;;7.2;3.95;;;;;;;-0.73;50.80566;95772.42;;;;
2020/04/15 03:09:22;;;;;;;8.999999;3.85;;;;;;;-0.78;50.43359;95768.08;;;;
2020/04/15 03:10:23;;;;;;;8.999999;3.85;;;;;;;-0.78;50.43359;95768.08;;;;
2020/04/15 03:11:24;;;;;;;8.999999;3.85;;;;;;;-0.78;50.43359;95768.08;;;;
2020/04/15 03:12:24;;;;;;;8.999999;3.85;;;;;;;-0.78;50.43359;95768.08;;;;
2020/04/15 03:13:25;;;;;;;8.999999;3.85;;;;;;;-0.78;50.43359;95768.08;;;;
2020/04/15 03:14:25;;;;;;;8.999999;3.85;;;;;;;-0.78;50.43359;95768.08;;;;
2020/04/15 03:15:26;;;;;;;8.999999;3.85;;;;;;;-0.78;50.43359;95768.08;;;;
2020/04/15 03:16:26;;;;;;;8.999999;3.85;;;;;;;-0.78;50.43359;95768.08;;;;
2020/04/15 03:17:27;;;;;;;8.999999;3.85;;;;;;;-0.78;50.43359;95768.08;;;;
2020/04/15 03:18:27;;;;;;;8.999999;3.85;;;;;;;-0.78;50.43359;95768.08;;;;
2020/04/15 03:19:28;;;;;;;9.299998;3.95;;;;;;;-0.8;50.47266;95766.08;;;;
2020/04/15 03:20:28;;;;;;;9.299998;3.95;;;;;;;-0.8;50.47266;95766.08;;;;
2020/04/15 03:21:29;;;;;;;9.299998;3.95;;;;;;;-0.8;50.47266;95766.08;;;;
2020/04/15 03:22:30;;;;;;;9.299998;3.95;;;;;;;-0.8;50.47266;95766.08;;;;
2020/04/15 03:23:30;;;;;;;9.299998;3.95;;;;;;;-0.8;50.47266;95766.08;;;;
2020/04/15 03:24:31;;;;;;;9.299998;3.95;;;;;;;-0.8;50.47266;95766.08;;;;
2020/04/15 03:25:31;;;;;;;9.299998;3.95;;;;;;;-0.8;50.47266;95766.08;;;;
2020/04/15 03:26:32;;;;;;;9.299998;3.95;;;;;;;-0.8;50.47266;95766.08;;;;
2020/04/15 03:27:33;;;;;;;9.299998;3.95;;;;;;;-0.8;50.47266;95766.08;;;;
2020/04/15 03:28:33;;;;;;;9.299998;3.95;;;;;;;-0.8;50.47266;95766.08;;;;
2020/04/15 03:29:34;;;;;;;9.299998;3.95;;;;;;;-0.8;50.47266;95766.08;;;;
2020/04/15 03:30:34;;;;;;;7.900001;3.55;;;;;;;-0.86;50.22363;95777.28;;;;
2020/04/15 03:31:35;;;;;;;7.900001;3.55;;;;;;;-0.86;50.22363;95777.28;;;;
2020/04/15 03:32:40;;;;;;;7.900001;3.55;;;;;;;-0.86;50.22363;95777.28;;;;
2020/04/15 03:33:54;;;;;;;7.4;3.95;;;;;;;-0.82;50.65918;95776.84;;;;
2020/04/15 03:35:01;;;;;;;7.4;3.95;;;;;;;-0.82;50.65918;95776.84;;;;
2020/04/15 03:36:06;;;;;;;7.4;3.95;;;;;;;-0.82;50.65918;95776.84;;;;
2020/04/15 03:37:14;;;;;;;7.4;3.95;;;;;;;-0.82;50.65918;95776.84;;;;
2020/04/15 03:39:19;;;;;;;7.4;3.95;;;;;;;-0.82;50.65918;95776.84;;;;
2020/04/15 03:40:25;;;;;;;7.4;3.95;;;;;;;-0.82;50.65918;95776.84;;;;
2020/04/15 03:41:37;;;;;;;7.4;3.95;;;;;;;-0.82;50.65918;95776.84;;;;
2020/04/15 03:42:47;;;;;;;7.4;3.95;;;;;;;-0.82;50.65918;95776.84;;;;
2020/04/15 03:43:57;;;;;;;6.599999;3.65;;;;;;;-0.91;50.43848;95774.69;;;;
2020/04/15 03:45:34;;;;;;;6.599999;3.65;;;;;;;-0.91;50.43848;95774.69;;;;
2020/04/15 03:46:40;;;;;;;6.599999;3.65;;;;;;;-0.91;50.43848;95774.69;;;;
2020/04/15 03:47:49;;;;;;;6.599999;3.65;;;;;;;-0.91;50.43848;95774.69;;;;
2020/04/15 03:48:54;;;;;;;6.599999;3.65;;;;;;;-0.91;50.43848;95774.69;;;;
2020/04/15 03:49:59;;;;;;;6.599999;3.65;;;;;;;-0.91;50.43848;95774.69;;;;
2020/04/15 03:51:03;;;;;;;6.599999;3.65;;;;;;;-0.91;50.43848;95774.69;;;;
2020/04/15 03:52:03;;;;;;;6.599999;3.65;;;;;;;-0.91;50.43848;95774.69;;;;
2020/04/15 03:53:04;;;;;;;6.599999;3.65;;;;;;;-0.91;50.43848;95774.69;;;;
2020/04/15 03:54:04;;;;;;;8.849999;3.9;;;;;;;-0.99;50.35645;95794.9;;;;
2020/04/15 03:55:05;;;;;;;8.849999;3.9;;;;;;;-0.99;50.35645;95794.9;;;;
2020/04/15 03:56:05;;;;;;;8.849999;3.9;;;;;;;-0.99;50.35645;95794.9;;;;
2020/04/15 03:57:06;;;;;;;8.849999;3.9;;;;;;;-0.99;50.35645;95794.9;;;;
2020/04/15 03:58:07;;;;;;;8.849999;3.9;;;;;;;-0.99;50.35645;95794.9;;;;
2020/04/15 03:59:07;;;;;;;8.849999;3.9;;;;;;;-0.99;50.35645;95794.9;;;;
2020/04/15 04:00:08;;;;;;;8.849999;3.9;;;;;;;-0.99;50.35645;95794.9;;;;
2020/04/15 04:01:08;;;;;;;8.849999;3.9;;;;;;;-0.99;50.35645;95794.9;;;;
2020/04/15 04:02:09;;;;;;;8.849999;3.9;;;;;;;-0.99;50.35645;95794.9;;;;
2020/04/15 04:03:09;;;;;;;8.849999;3.9;;;;;;;-0.99;50.35645;95794.9;;;;
2020/04/15 04:04:10;;;;;;;8.849999;3.9;;;;;;;-0.99;50.35645;95794.9;;;;
2020/04/15 04:05:10;;;;;;;7.85;3.95;;;;;;;-1.15;50.37988;95819.03;;;;
2020/04/15 04:06:11;;;;;;;7.85;3.95;;;;;;;-1.15;50.37988;95819.03;;;;
2020/04/15 04:07:11;;;;;;;8.150002;4.3;;;;;;;-1.12;50.83301;95826.7;;;;
2020/04/15 04:08:12;;;;;;;8.150002;4.3;;;;;;;-1.12;50.83301;95826.7;;;;
2020/04/15 04:09:12;;;;;;;8.150002;4.3;;;;;;;-1.12;50.83301;95826.7;;;;
2020/04/15 04:10:13;;;;;;;8.150002;4.3;;;;;;;-1.12;50.83301;95826.7;;;;
2020/04/15 04:11:14;;;;;;;8.150002;4.3;;;;;;;-1.12;50.83301;95826.7;;;;
2020/04/15 04:12:14;;;;;;;8.150002;4.3;;;;;;;-1.12;50.83301;95826.7;;;;
2020/04/15 04:13:15;;;;;;;8.150002;4.3;;;;;;;-1.12;50.83301;95826.7;;;;
2020/04/15 04:14:15;;;;;;;8.150002;4.3;;;;;;;-1.12;50.83301;95826.7;;;;
2020/04/15 04:15:16;;;;;;;8.150002;4.3;;;;;;;-1.12;50.83301;95826.7;;;;
2020/04/15 04:16:16;;;;;;;8.150002;4.3;;;;;;;-1.12;50.83301;95826.7;;;;
2020/04/15 04:17:17;;;;;;;8.150002;4.3;;;;;;;-1.12;50.83301;95826.7;;;;
2020/04/15 04:18:17;;;;;;;10.1;4.55;;;;;;;-1.16;50.70313;95835.93;;;;
2020/04/15 04:19:18;;;;;;;10.1;4.55;;;;;;;-1.16;50.70313;95835.93;;;;
2020/04/15 04:20:19;;;;;;;9.1;4.65;;;;;;;-1.11;51.2334;95837.62;;;;
2020/04/15 04:21:19;;;;;;;9.1;4.65;;;;;;;-1.11;51.2334;95837.62;;;;
2020/04/15 04:22:20;;;;;;;9.1;4.65;;;;;;;-1.11;51.2334;95837.62;;;;
2020/04/15 04:23:20;;;;;;;9.1;4.65;;;;;;;-1.11;51.2334;95837.62;;;;
2020/04/15 04:24:21;;;;;;;9.1;4.65;;;;;;;-1.11;51.2334;95837.62;;;;
2020/04/15 04:25:21;;;;;;;9.1;4.65;;;;;;;-1.11;51.2334;95837.62;;;;
2020/04/15 04:26:22;;;;;;;9.1;4.65;;;;;;;-1.11;51.2334;95837.62;;;;
2020/04/15 04:27:22;;;;;;;9.1;4.65;;;;;;;-1.11;51.2334;95837.62;;;;
2020/04/15 04:28:23;;;;;;;9.1;4.65;;;;;;;-1.11;51.2334;95837.62;;;;
2020/04/15 04:29:23;;;;;;;9.1;4.65;;;;;;;-1.11;51.2334;95837.62;;;;
2020/04/15 04:30:24;;;;;;;9.1;4.65;;;;;;;-1.11;51.2334;95837.62;;;;
2020/04/15 04:31:24;;;;;;;9.950001;4.45;;;;;;;-1.07;50.90137;95840.8;;;;
2020/04/15 04:32:25;;;;;;;9.950001;4.45;;;;;;;-1.07;50.90137;95840.8;;;;
2020/04/15 04:33:25;;;;;;;9.950001;4.45;;;;;;;-1.07;50.90137;95840.8;;;;
2020/04/15 04:34:26;;;;;;;6.25;4.25;;;;;;;-1.01;51.38184;95825.21;;;;
2020/04/15 04:35:26;;;;;;;6.25;4.25;;;;;;;-1.01;51.38184;95825.21;;;;
2020/04/15 04:36:26;;;;;;;6.25;4.25;;;;;;;-1.01;51.38184;95825.21;;;;
2020/04/15 04:37:27;;;;;;;6.25;4.25;;;;;;;-1.01;51.38184;95825.21;;;;
2020/04/15 04:38:27;;;;;;;6.25;4.25;;;;;;;-1.01;51.38184;95825.21;;;;
2020/04/15 04:39:28;;;;;;;6.25;4.25;;;;;;;-1.01;51.38184;95825.21;;;;
2020/04/15 04:40:28;;;;;;;6.25;4.25;;;;;;;-1.01;51.38184;95825.21;;;;
2020/04/15 04:41:29;;;;;;;6.25;4.25;;;;;;;-1.01;51.38184;95825.21;;;;
2020/04/15 04:42:29;;;;;;;6.25;4.25;;;;;;;-1.01;51.38184;95825.21;;;;
2020/04/15 04:43:30;;;;;;;6.25;4.25;;;;;;;-1.01;51.38184;95825.21;;;;
2020/04/15 04:44:30;;;;;;;7.65;3.5;;;;;;;-0.86;51.47168;95797.16;;;;
2020/04/15 04:45:31;;;;;;;7.65;3.5;;;;;;;-0.86;51.47168;95797.16;;;;
2020/04/15 04:46:31;;;;;;;7.65;3.5;;;;;;;-0.86;51.47168;95797.16;;;;
2020/04/15 04:47:32;;;;;;;7.65;3.5;;;;;;;-0.86;51.47168;95797.16;;;;
2020/04/15 04:48:32;;;;;;;7.65;3.5;;;;;;;-0.86;51.47168;95797.16;;;;
2020/04/15 04:49:33;;;;;;;7.65;3.5;;;;;;;-0.86;51.47168;95797.16;;;;
2020/04/15 04:50:33;;;;;;;7.65;3.5;;;;;;;-0.86;51.47168;95797.16;;;;
2020/04/15 04:51:34;;;;;;;7.65;3.5;;;;;;;-0.86;51.47168;95797.16;;;;
2020/04/15 04:52:34;;;;;;;7.65;3.5;;;;;;;-0.86;51.47168;95797.16;;;;
2020/04/15 04:53:34;;;;;;;7.65;3.5;;;;;;;-0.86;51.47168;95797.16;;;;
2020/04/15 04:54:35;;;;;;;7.65;3.5;;;;;;;-0.86;51.47168;95797.16;;;;
2020/04/15 04:55:35;;;;;;;7.8;3.55;;;;;;;-0.51;51.25293;95790.05;;;;
2020/04/15 04:56:36;;;;;;;7.8;3.55;;;;;;;-0.51;51.25293;95790.05;;;;
2020/04/15 04:57:36;;;;;;;7.8;3.55;;;;;;;-0.51;51.25293;95790.05;;;;
2020/04/15 04:58:36;;;;;;;7.8;3.55;;;;;;;-0.51;51.25293;95790.05;;;;
2020/04/15 04:59:37;;;;;;;7.8;3.55;;;;;;;-0.51;51.25293;95790.05;;;;
2020/04/15 05:00:37;;;;;;;7.8;3.55;;;;;;;-0.51;51.25293;95790.05;;;;
2020/04/15 05:01:38;;;;;;;7.8;3.55;;;;;;;-0.51;51.25293;95790.05;;;;
2020/04/15 05:02:38;;;;;;;7.8;3.55;;;;;;;-0.51;51.25293;95790.05;;;;
2020/04/15 05:03:39;;;;;;;7.8;3.55;;;;;;;-0.51;51.25293;95790.05;;;;
2020/04/15 05:04:39;;;;;;;7.8;3.55;;;;;;;-0.51;51.25293;95790.05;;;;
2020/04/15 05:05:40;;;;;;;9.600001;4.050001;;;;;;;-0.23;50.9707;95786.64;;;;
2020/04/15 05:06:40;;;;;;;9.600001;4.050001;;;;;;;-0.23;50.9707;95786.64;;;;
2020/04/15 05:07:41;;;;;;;9.600001;4.050001;;;;;;;-0.23;50.9707;95786.64;;;;
2020/04/15 05:08:41;;;;;;;9.75;4.4;;;;;;;-0.07;51.25293;95800.9;;;;
2020/04/15 05:09:41;;;;;;;9.75;4.4;;;;;;;-0.07;51.25293;95800.9;;;;
2020/04/15 05:10:42;;;;;;;9.75;4.4;;;;;;;-0.07;51.25293;95800.9;;;;
2020/04/15 05:11:42;;;;;;;9.75;4.4;;;;;;;-0.07;51.25293;95800.9;;;;
2020/04/15 05:12:46;;;;;;;9.75;4.4;;;;;;;-0.07;51.25293;95800.9;;;;
2020/04/15 05:13:46;;;;;;;9.75;4.4;;;;;;;-0.07;51.25293;95800.9;;;;
2020/04/15 05:14:47;;;;;;;9.75;4.4;;;;;;;-0.07;51.25293;95800.9;;;;
2020/04/15 05:15:47;;;;;;;9.75;4.4;;;;;;;-0.07;51.25293;95800.9;;;;
2020/04/15 05:16:48;;;;;;;9.75;4.4;;;;;;;-0.07;51.25293;95800.9;;;;
2020/04/15 05:17:48;;;;;;;9.75;4.4;;;;;;;-0.07;51.25293;95800.9;;;;
2020/04/15 05:18:49;;;;;;;6.45;3.7;;;;;;;0.2;50.78125;95798.94;;;;
2020/04/15 05:19:49;;;;;;;6.45;3.7;;;;;;;0.2;50.78125;95798.94;;;;
2020/04/15 05:20:49;;;;;;;6.45;3.7;;;;;;;0.2;50.78125;95798.94;;;;
2020/04/15 05:21:50;;;;;;;7.55;4.25;;;;;;;0.33;51.21777;95805.97;;;;
2020/04/15 05:22:50;;;;;;;7.55;4.25;;;;;;;0.33;51.21777;95805.97;;;;
2020/04/15 05:23:51;;;;;;;7.55;4.25;;;;;;;0.33;51.21777;95805.97;;;;
2020/04/15 05:24:51;;;;;;;7.55;4.25;;;;;;;0.33;51.21777;95805.97;;;;
2020/04/15 05:25:51;;;;;;;7.55;4.25;;;;;;;0.33;51.21777;95805.97;;;;
2020/04/15 05:26:52;;;;;;;7.55;4.25;;;;;;;0.33;51.21777;95805.97;;;;
2020/04/15 05:27:52;;;;;;;7.55;4.25;;;;;;;0.33;51.21777;95805.97;;;;
2020/04/15 05:28:53;;;;;;;7.55;4.25;;;;;;;0.33;51.21777;95805.97;;;;
2020/04/15 05:29:53;;;;;;;7.55;4.25;;;;;;;0.33;51.21777;95805.97;;;;
2020/04/15 05:30:54;;;;;;;7.55;4.25;;;;;;;0.33;51.21777;95805.97;;;;
2020/04/15 05:31:54;;;;;;;10.85;3.999999;;;;;;;0.69;50.87109;95822.02;;;;
2020/04/15 05:32:55;;;;;;;10.85;3.999999;;;;;;;0.69;50.87109;95822.02;;;;
2020/04/15 05:33:55;;;;;;;10.85;3.999999;;;;;;;0.69;50.87109;95822.02;;;;
2020/04/15 05:34:56;;;;;;;10.85;3.999999;;;;;;;0.69;50.87109;95822.02;;;;
2020/04/15 05:35:56;;;;;;;10.85;3.999999;;;;;;;0.69;50.87109;95822.02;;;;
2020/04/15 05:36:56;;;;;;;10.85;3.999999;;;;;;;0.69;50.87109;95822.02;;;;
2020/04/15 05:37:57;;;;;;;10.85;3.999999;;;;;;;0.69;50.87109;95822.02;;;;
2020/04/15 05:38:57;;;;;;;10.85;3.999999;;;;;;;0.69;50.87109;95822.02;;;;
2020/04/15 05:39:58;;;;;;;10.85;3.999999;;;;;;;0.69;50.87109;95822.02;;;;
2020/04/15 05:40:58;;;;;;;10.85;3.999999;;;;;;;0.69;50.87109;95822.02;;;;
2020/04/15 05:41:59;;;;;;;10.85;3.999999;;;;;;;0.69;50.87109;95822.02;;;;
2020/04/15 05:42:59;;;;;;;8.049999;4.15;;;;;;;1.18;50.66602;95825.09;;;;
2020/04/15 05:44:00;;;;;;;8.049999;4.15;;;;;;;1.18;50.66602;95825.09;;;;
2020/04/15 05:45:00;;;;;;;8.049999;4.15;;;;;;;1.18;50.66602;95825.09;;;;
2020/04/15 05:46:00;;;;;;;8.049999;4.15;;;;;;;1.18;50.66602;95825.09;;;;